Clearfork, Virginia
Current Conditions -  °F | °C
As of 4:52 AM on Sunday 23 Nov 2014 (Local Time) from KBLF Reporting Station
Overcast Overcast  
Wind Chill: 42°   Ceiling: 10000
Heat Index: 45°   Visibility: 10mi
Dew Point: 23°   Wind: 6mph
Humidity: 42%   Direction: 100°E
Pressure: 30.18"   Gusts: NA
Location:  37.1593°N, 81.1986°W
Report Text: KBLF 230952Z AUTO 10005KT 10SM OVC100 07/M05 A3018 RMK AO2 SLP213 T00721050
Loading
Personal Weather Stations






























Interactive Weather Map New forecast layout! Learn more

10-Day Weather Forecast

Advertisements
Track Severe Weather on mobile